Terminal Aerodrome Forecast
Issued by NWS

Home | Current Version | Previous Version | Text Only | Print | Product List | Glossary On
Versions: 1 2 3 4 5 6 7 8 9 10 11 12 13 14 15 16 17 18 19 20
000
FTUS43 KMPX 270936 AAA
TAFRNH
TAF AMD
KRNH 270936Z 2710/2806 11003KT P6SM VCSH SCT040 BKN080
      TEMPO 2710/2713 4SM -TSRA BKN040CB OVC070
     FM271300 09005KT P6SM -SHRA OVC050
      TEMPO 2713/2717 -TSRA OVC020CB
     FM272000 19007KT P6SM OVC050=

USA.gov is the U.S. government's official web portal to all federal, state and local government web resources and services.